Terminal Aerodrome Forecast
Issued by NWS Buffalo, NY

Home | Current Version | Previous Version | Text Only | Print | Product List | Glossary On
Versions: 1 2 3 4 5 6 7 8 9 10 11 12 13 14 15 16 17 18 19 20 21 22 23 24 25 26 27 28
000
FTUS41 KBUF 260520
TAFBUF
TAF
KBUF 260520Z 2606/2706 27014G24KT P6SM VCSH OVC050
      TEMPO 2606/2609 4SM -SHSN
     FM261000 27014G23KT P6SM BKN050
     FM261500 25016G26KT P6SM BKN080
     FM262000 24016G26KT P6SM SCT120
     FM270000 21012G21KT P6SM BKN080=

USA.gov is the U.S. government's official web portal to all federal, state and local government web resources and services.